createdAt,value
2023-04-07T00:00:26.845Z,17.75
2023-04-07T00:02:54.021Z,17.77
2023-04-07T00:05:20.942Z,16.92
2023-04-07T00:07:55.831Z,16.83
2023-04-07T00:10:24.514Z,15.85
2023-04-07T00:12:51.366Z,17.33
2023-04-07T00:15:18.427Z,19.13
2023-04-07T00:20:12.595Z,17.10
2023-04-07T00:22:39.678Z,16.58
2023-04-07T00:25:07.984Z,19.15
2023-04-07T00:27:34.886Z,17.50
2023-04-07T00:30:02.189Z,16.98
2023-04-07T00:32:28.984Z,19.33
2023-04-07T00:34:56.119Z,19.10
2023-04-07T00:39:51.645Z,16.90
2023-04-07T00:42:19.734Z,17.08
2023-04-07T00:44:46.555Z,16.45
2023-04-07T00:47:13.381Z,15.00
2023-04-07T00:49:40.274Z,15.90
2023-04-07T00:54:34.687Z,14.88
2023-04-07T00:57:01.780Z,16.15
2023-04-07T01:02:17.905Z,15.75
2023-04-07T01:04:54.432Z,13.95
2023-04-07T01:07:47.536Z,14.57
2023-04-07T01:10:20.900Z,15.32
2023-04-07T01:13:22.409Z,14.88
2023-04-07T01:15:56.234Z,17.73
2023-04-07T01:18:34.683Z,14.90
2023-04-07T01:21:06.506Z,15.02
2023-04-07T01:23:58.123Z,15.27
2023-04-07T01:26:33.407Z,15.50
2023-04-07T01:29:26.908Z,14.73
2023-04-07T01:31:56.744Z,15.45
2023-04-07T01:34:26.656Z,15.68
2023-04-07T01:36:55.529Z,13.57
2023-04-07T01:39:23.551Z,12.57
2023-04-07T01:41:53.451Z,12.73
2023-04-07T01:44:22.469Z,14.73
2023-04-07T01:46:51.153Z,14.05
2023-04-07T01:49:19.273Z,13.43
2023-04-07T01:51:50.413Z,14.30
2023-04-07T01:54:18.264Z,15.55
2023-04-07T01:56:45.232Z,15.02
2023-04-07T01:59:12.803Z,12.48
2023-04-07T02:01:40.544Z,13.43
2023-04-07T02:04:31.543Z,11.77
2023-04-07T02:07:06.053Z,16.50
2023-04-07T02:09:40.899Z,13.13
2023-04-07T02:12:11.813Z,14.85
2023-04-07T02:14:44.385Z,15.05
2023-04-07T02:17:16.450Z,14.70
2023-04-07T02:19:45.048Z,14.50
2023-04-07T02:22:13.292Z,12.32
2023-04-07T02:24:43.530Z,13.70
2023-04-07T02:27:10.370Z,13.65
2023-04-07T02:29:37.226Z,14.48
2023-04-07T02:32:04.276Z,14.77
2023-04-07T02:36:57.810Z,15.57
2023-04-07T02:39:24.642Z,14.27
2023-04-07T02:41:51.359Z,16.20
2023-04-07T02:44:18.382Z,15.63
2023-04-07T02:46:45.536Z,17.27
2023-04-07T02:49:12.386Z,18.48
2023-04-07T02:51:39.194Z,18.75
2023-04-07T02:54:06.102Z,19.02
2023-04-07T02:56:33.293Z,19.33
2023-04-07T02:59:00.140Z,16.75
2023-04-07T03:01:27.984Z,17.67
2023-04-07T03:03:55.487Z,16.83
2023-04-07T03:06:24.832Z,19.02
2023-04-07T03:09:03.620Z,18.38
2023-04-07T03:11:30.344Z,20.10
2023-04-07T03:13:59.531Z,18.35
2023-04-07T03:16:27.906Z,16.73
2023-04-07T03:19:01.138Z,16.67
2023-04-07T03:21:31.915Z,16.80
2023-04-07T03:23:58.907Z,16.55
2023-04-07T03:26:25.780Z,16.90
2023-04-07T03:28:52.607Z,17.77
2023-04-07T03:31:20.756Z,17.17
2023-04-07T03:33:51.060Z,19.83
2023-04-07T03:36:19.723Z,19.75
2023-04-07T03:38:47.867Z,15.90
2023-04-07T03:41:17.897Z,17.75
2023-04-07T03:43:44.682Z,17.20
2023-04-07T03:46:11.536Z,17.70
2023-04-07T03:48:38.444Z,16.70
2023-04-07T03:51:08.004Z,16.30
2023-04-07T03:53:36.257Z,18.83
2023-04-07T03:56:14.404Z,16.75
2023-04-07T03:58:49.945Z,19.60
2023-04-07T04:01:24.958Z,15.90
2023-04-07T04:03:52.395Z,17.58
2023-04-07T04:06:27.921Z,19.58
2023-04-07T04:09:01.726Z,19.08
2023-04-07T04:11:31.646Z,17.08
2023-04-07T04:14:02.682Z,16.40
2023-04-07T04:19:03.150Z,15.82
2023-04-07T04:21:31.268Z,15.02
2023-04-07T04:26:26.519Z,17.63
2023-04-07T04:28:57.327Z,17.58
2023-04-07T04:31:25.103Z,17.75
2023-04-07T04:33:52.736Z,19.38
2023-04-07T04:36:20.032Z,18.42
2023-04-07T04:41:16.877Z,18.40
2023-04-07T04:43:45.196Z,20.05
2023-04-07T04:46:17.432Z,19.40
2023-04-07T04:48:45.299Z,17.45
2023-04-07T04:51:12.174Z,20.13
2023-04-07T04:53:41.815Z,22.92
2023-04-07T04:56:08.778Z,20.00
2023-04-07T04:58:42.078Z,17.08
2023-04-07T05:01:11.589Z,21.95
2023-04-07T05:03:43.102Z,21.13
2023-04-07T05:06:17.236Z,20.38
2023-04-07T05:08:46.246Z,20.75
2023-04-07T05:11:15.426Z,22.33
2023-04-07T05:13:45.343Z,16.35
2023-04-07T05:16:12.528Z,20.88
2023-04-07T05:18:40.523Z,22.05
2023-04-07T05:23:36.788Z,20.13
2023-04-07T05:26:06.047Z,21.83
2023-04-07T05:28:33.287Z,17.95
2023-04-07T05:31:07.005Z,16.42
2023-04-07T05:33:35.596Z,20.23
2023-04-07T05:36:03.839Z,21.15
2023-04-07T05:38:32.307Z,19.38
2023-04-07T05:41:06.713Z,16.95
2023-04-07T05:43:35.598Z,17.27
2023-04-07T05:48:30.391Z,15.75
2023-04-07T05:50:57.260Z,18.60
2023-04-07T05:53:24.899Z,17.25
2023-04-07T05:55:51.669Z,16.55
2023-04-07T05:58:33.806Z,15.45
2023-04-07T06:01:00.772Z,14.93
2023-04-07T06:03:27.828Z,16.15
2023-04-07T06:06:05.359Z,16.00
2023-04-07T06:08:32.219Z,13.75
2023-04-07T06:10:59.036Z,17.08
2023-04-07T06:13:26.596Z,16.83
2023-04-07T06:15:56.203Z,18.55
2023-04-07T06:18:23.331Z,17.63
2023-04-07T06:20:50.214Z,15.43
2023-04-07T06:23:16.919Z,13.93
2023-04-07T06:25:43.816Z,15.35
2023-04-07T06:28:10.621Z,14.90
2023-04-07T06:30:37.619Z,17.48
2023-04-07T06:33:08.273Z,18.23
2023-04-07T06:35:35.310Z,16.27
2023-04-07T06:40:29.001Z,15.05
2023-04-07T06:42:56.625Z,19.02
2023-04-07T06:45:31.955Z,14.55
2023-04-07T06:48:00.291Z,16.75
2023-04-07T06:50:26.945Z,14.15
2023-04-07T06:52:53.646Z,12.43
2023-04-07T06:55:20.604Z,13.50
2023-04-07T07:00:14.928Z,15.70
2023-04-07T07:02:41.835Z,16.27
2023-04-07T07:07:35.429Z,13.98
2023-04-07T07:10:02.223Z,15.40
2023-04-07T07:12:28.918Z,15.25
2023-04-07T07:14:55.600Z,18.90
2023-04-07T07:17:22.901Z,16.00
2023-04-07T07:19:49.692Z,16.35
2023-04-07T07:22:16.712Z,15.05
2023-04-07T07:27:10.318Z,16.02
2023-04-07T07:32:03.672Z,15.50
2023-04-07T07:34:30.433Z,16.63
2023-04-07T07:36:57.123Z,14.48
2023-04-07T07:39:23.898Z,12.48
2023-04-07T07:41:51.262Z,13.20
2023-04-07T07:44:20.173Z,12.68
2023-04-07T07:46:47.051Z,12.57
2023-04-07T07:49:13.785Z,13.20
2023-04-07T07:51:40.533Z,15.07
2023-04-07T07:54:07.343Z,14.18
2023-04-07T07:56:34.146Z,14.32
2023-04-07T07:59:01.109Z,14.15
2023-04-07T08:03:55.044Z,13.75
2023-04-07T08:06:21.983Z,20.52
2023-04-07T08:08:48.758Z,14.55
2023-04-07T08:11:15.426Z,13.02
2023-04-07T08:13:45.443Z,12.65
2023-04-07T08:16:12.515Z,14.95
2023-04-07T08:18:39.409Z,13.73
2023-04-07T08:21:06.693Z,11.20
2023-04-07T08:23:33.492Z,10.10
2023-04-07T08:26:00.544Z,12.13
2023-04-07T08:28:27.619Z,15.00
2023-04-07T08:30:54.300Z,13.82
2023-04-07T08:33:21.001Z,13.15
2023-04-07T08:35:47.782Z,10.82
2023-04-07T08:40:41.305Z,11.32
2023-04-07T08:43:10.684Z,10.77
2023-04-07T08:45:42.119Z,11.13
2023-04-07T08:48:17.800Z,11.60
2023-04-07T08:50:45.721Z,10.38
2023-04-07T08:53:16.520Z,10.27
2023-04-07T08:55:43.308Z,10.50
2023-04-07T09:00:42.820Z,9.55
2023-04-07T09:03:11.826Z,9.90
2023-04-07T09:05:39.781Z,8.77
2023-04-07T09:08:06.803Z,8.45
2023-04-07T09:10:33.613Z,9.82
2023-04-07T09:15:31.259Z,9.32
2023-04-07T09:17:59.393Z,9.98
2023-04-07T09:20:26.212Z,8.93
2023-04-07T09:25:26.397Z,10.18
2023-04-07T09:28:00.314Z,8.23
2023-04-07T09:30:28.336Z,9.73
2023-04-07T09:32:55.796Z,9.18
2023-04-07T09:35:23.823Z,10.52
2023-04-07T09:38:09.888Z,10.27
2023-04-07T09:40:39.739Z,9.40
2023-04-07T09:43:07.046Z,10.63
2023-04-07T09:45:36.565Z,10.30
2023-04-07T09:48:09.107Z,9.60
2023-04-07T09:50:39.863Z,9.73
2023-04-07T09:53:07.160Z,11.68
2023-04-07T09:55:34.856Z,10.77
2023-04-07T09:58:01.926Z,12.65
2023-04-07T10:00:28.638Z,10.18
2023-04-07T10:02:56.444Z,10.85
2023-04-07T10:05:25.273Z,9.50
2023-04-07T10:07:52.486Z,11.88
2023-04-07T10:10:19.237Z,9.52
2023-04-07T10:15:16.991Z,8.93
2023-04-07T10:17:48.253Z,9.20
2023-04-07T10:20:20.749Z,10.02
2023-04-07T10:22:51.366Z,10.25
2023-04-07T10:25:21.244Z,9.85
2023-04-07T10:27:59.434Z,9.82
2023-04-07T10:30:31.200Z,11.05
2023-04-07T10:32:58.848Z,11.05
2023-04-07T10:35:26.264Z,9.45
2023-04-07T10:38:08.491Z,9.75
2023-04-07T10:40:36.293Z,11.52
2023-04-07T10:43:04.051Z,10.20
2023-04-07T10:45:49.171Z,11.07
2023-04-07T10:48:17.977Z,11.38
2023-04-07T10:51:08.330Z,12.68
2023-04-07T10:53:35.331Z,10.30
2023-04-07T10:56:02.731Z,9.48
2023-04-07T10:58:31.101Z,10.80
2023-04-07T11:01:01.109Z,10.85
2023-04-07T11:03:29.552Z,10.63
2023-04-07T11:06:06.385Z,9.45
2023-04-07T11:08:34.086Z,10.00
2023-04-07T11:11:00.801Z,9.80
2023-04-07T11:13:28.213Z,9.98
2023-04-07T11:15:55.462Z,9.30
2023-04-07T11:18:25.950Z,9.25
2023-04-07T11:21:00.743Z,9.38
2023-04-07T11:23:28.380Z,10.23
2023-04-07T11:26:03.025Z,10.90
2023-04-07T11:28:30.856Z,11.60
2023-04-07T11:30:58.738Z,10.80
2023-04-07T11:33:31.046Z,9.20
2023-04-07T11:36:00.980Z,9.98
2023-04-07T11:38:34.648Z,10.25
2023-04-07T11:41:15.953Z,9.95
2023-04-07T11:43:42.937Z,11.00
2023-04-07T11:46:13.744Z,9.88
2023-04-07T11:48:42.600Z,10.05
2023-04-07T11:51:17.134Z,9.05
2023-04-07T11:53:44.145Z,9.63
2023-04-07T11:56:16.709Z,9.68
2023-04-07T11:58:54.461Z,9.13
2023-04-07T12:01:24.638Z,9.18
2023-04-07T12:04:02.160Z,9.60
2023-04-07T12:06:35.013Z,8.07
2023-04-07T12:09:02.720Z,9.43
2023-04-07T12:11:30.198Z,9.07
2023-04-07T12:13:57.220Z,7.03
2023-04-07T12:16:24.709Z,6.80
2023-04-07T12:18:52.046Z,6.60
2023-04-07T12:21:20.134Z,7.22
2023-04-07T12:23:47.806Z,7.70
2023-04-07T12:26:14.677Z,7.15
2023-04-07T12:28:41.360Z,7.93
2023-04-07T12:31:08.124Z,7.30
2023-04-07T12:33:34.866Z,6.85
2023-04-07T12:36:02.002Z,6.72
2023-04-07T12:38:28.828Z,6.95
2023-04-07T12:43:22.519Z,7.70
2023-04-07T12:45:49.362Z,6.50
2023-04-07T12:48:16.739Z,7.63
2023-04-07T12:50:43.517Z,7.85
2023-04-07T12:55:37.524Z,11.23
2023-04-07T12:58:04.685Z,9.23
2023-04-07T13:00:31.573Z,9.45
2023-04-07T13:02:58.573Z,9.80
2023-04-07T13:05:25.528Z,9.80
2023-04-07T13:10:18.967Z,10.38
2023-04-07T13:15:13.733Z,8.18
2023-04-07T13:17:40.657Z,6.95
2023-04-07T13:20:07.957Z,6.60
2023-04-07T13:22:35.950Z,6.45
2023-04-07T13:25:03.136Z,7.80
2023-04-07T13:27:29.928Z,9.00
2023-04-07T13:29:56.681Z,7.20
2023-04-07T13:32:23.603Z,6.93
2023-04-07T13:34:50.586Z,6.65
2023-04-07T13:37:19.021Z,8.48
2023-04-07T13:39:45.956Z,7.00
2023-04-07T13:42:16.966Z,6.68
2023-04-07T13:44:47.396Z,6.40
2023-04-07T13:47:19.632Z,6.50
2023-04-07T13:49:49.834Z,7.30
2023-04-07T13:52:16.691Z,8.23
2023-04-07T13:57:10.783Z,7.57
2023-04-07T14:02:04.385Z,6.50
2023-04-07T14:04:31.382Z,6.20
2023-04-07T14:06:58.214Z,6.95
2023-04-07T14:11:51.568Z,6.40
2023-04-07T14:16:44.932Z,6.72
2023-04-07T14:19:11.771Z,6.20
2023-04-07T14:24:05.136Z,6.57
2023-04-07T14:28:59.036Z,4.90
2023-04-07T14:31:26.002Z,6.22
2023-04-07T14:33:52.903Z,4.47
2023-04-07T14:36:21.332Z,5.35
2023-04-07T14:38:50.466Z,4.72
2023-04-07T14:41:18.155Z,4.70
2023-04-07T14:43:44.983Z,4.90
2023-04-07T14:46:12.407Z,4.22
2023-04-07T14:48:39.321Z,3.72
2023-04-07T14:53:42.121Z,3.55
2023-04-07T14:56:08.979Z,3.95
2023-04-07T14:58:37.449Z,3.17
2023-04-07T15:01:06.395Z,3.13
2023-04-07T15:03:34.907Z,3.70
2023-04-07T15:06:01.854Z,4.15
2023-04-07T15:10:55.290Z,3.72
2023-04-07T15:15:48.702Z,3.45
2023-04-07T15:20:42.493Z,3.30
2023-04-07T15:25:36.010Z,2.38
2023-04-07T15:28:04.077Z,3.75
2023-04-07T15:30:33.458Z,3.88
2023-04-07T15:33:04.224Z,4.40
2023-04-07T15:35:31.166Z,3.83
2023-04-07T15:40:24.633Z,4.20
2023-04-07T15:42:51.381Z,4.57
2023-04-07T15:45:18.114Z,4.13
2023-04-07T15:47:44.976Z,3.67
2023-04-07T15:52:39.725Z,3.00
2023-04-07T15:55:07.175Z,2.90
2023-04-07T15:57:33.976Z,2.22
2023-04-07T16:00:00.970Z,2.90
2023-04-07T16:04:54.681Z,3.30
2023-04-07T16:07:21.449Z,3.08
2023-04-07T16:09:48.233Z,2.80
2023-04-07T16:12:16.346Z,3.40
2023-04-07T16:14:43.331Z,5.75
2023-04-07T16:17:11.196Z,14.45
2023-04-07T16:19:38.070Z,8.88
2023-04-07T16:24:31.573Z,5.82
2023-04-07T16:29:28.021Z,2.03
2023-04-07T16:34:21.912Z,1.75
2023-04-07T16:36:50.224Z,3.90
2023-04-07T16:39:18.144Z,2.10
2023-04-07T16:41:44.854Z,2.50
2023-04-07T16:44:11.566Z,3.85
2023-04-07T16:46:38.262Z,3.45
2023-04-07T16:49:05.016Z,2.65
2023-04-07T16:51:32.290Z,3.60
2023-04-07T16:56:25.956Z,2.03
2023-04-07T16:58:53.624Z,1.95
2023-04-07T17:01:20.499Z,2.92
2023-04-07T17:06:16.494Z,5.18
2023-04-07T17:08:43.964Z,1.67
2023-04-07T17:11:12.701Z,1.60
2023-04-07T17:13:40.252Z,1.30
2023-04-07T17:16:11.797Z,1.95
2023-04-07T17:18:38.740Z,1.30
2023-04-07T17:23:32.346Z,1.98
2023-04-07T17:25:59.341Z,1.90
2023-04-07T17:28:29.794Z,2.08
2023-04-07T17:30:56.724Z,1.77
2023-04-07T17:33:23.678Z,2.13
2023-04-07T17:38:17.318Z,4.00
2023-04-07T17:40:44.201Z,5.28
2023-04-07T17:45:38.157Z,5.13
2023-04-07T17:48:05.164Z,3.58
2023-04-07T17:50:32.032Z,2.70
2023-04-07T17:53:00.398Z,1.88
2023-04-07T17:55:27.991Z,1.58
2023-04-07T17:58:00.702Z,2.13
2023-04-07T18:00:28.370Z,2.15
2023-04-07T18:02:55.274Z,2.03
2023-04-07T18:05:22.560Z,1.80
2023-04-07T18:07:49.415Z,1.70
2023-04-07T18:12:43.060Z,1.95
2023-04-07T18:15:10.366Z,1.83
2023-04-07T18:17:38.170Z,2.10
2023-04-07T18:20:05.963Z,1.60
2023-04-07T18:22:32.890Z,1.75
2023-04-07T18:27:28.339Z,2.80
2023-04-07T18:29:55.861Z,2.80
2023-04-07T18:32:24.089Z,2.55
2023-04-07T18:34:51.178Z,2.13
2023-04-07T18:37:17.830Z,2.47
2023-04-07T18:39:44.855Z,1.90
2023-04-07T18:42:11.780Z,1.70
2023-04-07T18:47:05.377Z,2.58
2023-04-07T18:51:58.888Z,1.95
2023-04-07T18:59:20.933Z,1.80
2023-04-07T19:01:47.814Z,1.65
2023-04-07T19:06:42.248Z,2.88
2023-04-07T19:09:09.104Z,2.80
2023-04-07T19:14:03.389Z,2.80
2023-04-07T19:16:31.234Z,2.65
2023-04-07T19:18:58.072Z,2.88
2023-04-07T19:21:25.089Z,2.72
2023-04-07T19:26:19.473Z,2.95
2023-04-07T19:28:46.327Z,2.83
2023-04-07T19:33:40.273Z,2.80
2023-04-07T19:36:07.261Z,3.00
2023-04-07T19:38:34.194Z,3.22
2023-04-07T19:43:27.720Z,3.38
2023-04-07T19:45:54.668Z,3.78
2023-04-07T19:50:49.625Z,3.78
2023-04-07T19:53:16.694Z,3.78
2023-04-07T19:55:44.420Z,3.50
2023-04-07T19:58:11.758Z,3.00
2023-04-07T20:00:40.226Z,2.30
2023-04-07T20:03:07.162Z,3.55
2023-04-07T20:05:34.401Z,4.35
2023-04-07T20:08:02.014Z,4.53
2023-04-07T20:10:29.383Z,4.25
2023-04-07T20:12:56.521Z,2.40
2023-04-07T20:15:26.280Z,1.90
2023-04-07T20:17:53.294Z,2.05
2023-04-07T20:20:20.494Z,1.60
2023-04-07T20:25:13.996Z,2.15
2023-04-07T20:27:40.926Z,2.05
2023-04-07T20:32:35.631Z,3.25
2023-04-07T20:35:03.707Z,2.00
2023-04-07T20:37:30.499Z,1.60
2023-04-07T20:39:57.610Z,2.13
2023-04-07T20:42:24.539Z,2.10
2023-04-07T20:44:53.175Z,1.33
2023-04-07T20:47:20.319Z,1.60
2023-04-07T20:49:47.138Z,1.40
2023-04-07T20:52:13.859Z,1.98
2023-04-07T20:54:42.635Z,1.80
2023-04-07T20:57:09.396Z,1.20
2023-04-07T20:59:36.103Z,1.75
2023-04-07T21:02:03.235Z,1.45
2023-04-07T21:04:30.166Z,1.90
2023-04-07T21:06:56.876Z,1.88
2023-04-07T21:09:23.686Z,1.63
2023-04-07T21:11:50.710Z,1.92
2023-04-07T21:16:44.176Z,1.75
2023-04-07T21:19:11.126Z,1.52
2023-04-07T21:24:04.646Z,1.80
2023-04-07T21:28:58.045Z,1.90
2023-04-07T21:31:25.029Z,2.00
2023-04-07T21:33:52.784Z,1.90
2023-04-07T21:36:19.732Z,1.60
2023-04-07T21:41:13.486Z,1.50
2023-04-07T21:43:40.175Z,1.85
2023-04-07T21:46:07.001Z,1.85
2023-04-07T21:48:34.746Z,1.70
2023-04-07T21:51:01.817Z,1.98
2023-04-07T21:53:28.748Z,1.40
2023-04-07T21:58:23.414Z,1.42
2023-04-07T22:00:50.268Z,1.73
2023-04-07T22:08:13.059Z,2.53
2023-04-07T22:10:39.908Z,2.30
2023-04-07T22:13:06.650Z,2.10
2023-04-07T22:15:33.429Z,2.25
2023-04-07T22:18:00.311Z,3.25
2023-04-07T22:20:27.125Z,2.58
2023-04-07T22:22:57.206Z,3.22
2023-04-07T22:25:24.929Z,2.55
2023-04-07T22:27:52.435Z,2.30
2023-04-07T22:30:20.398Z,2.42
2023-04-07T22:32:48.027Z,2.28
2023-04-07T22:35:15.023Z,2.22
2023-04-07T22:40:09.876Z,1.98
2023-04-07T22:42:37.573Z,2.00
2023-04-07T22:45:04.824Z,2.13
2023-04-07T22:47:31.616Z,2.33
2023-04-07T22:49:58.447Z,1.77
2023-04-07T22:52:25.269Z,1.40
2023-04-07T22:54:52.025Z,1.20
2023-04-07T22:57:18.795Z,1.35
2023-04-07T22:59:46.099Z,1.88
2023-04-07T23:02:13.050Z,1.38
2023-04-07T23:07:06.768Z,1.20
2023-04-07T23:12:01.333Z,1.48
2023-04-07T23:14:28.205Z,1.20
2023-04-07T23:16:56.012Z,1.50
2023-04-07T23:19:23.165Z,1.27
2023-04-07T23:21:49.929Z,1.60
2023-04-07T23:24:16.661Z,1.50
2023-04-07T23:26:43.670Z,1.80
2023-04-07T23:31:37.172Z,1.40
2023-04-07T23:34:04.588Z,2.08
2023-04-07T23:36:31.595Z,1.75
2023-04-07T23:41:25.590Z,1.90
2023-04-07T23:46:19.198Z,1.88
2023-04-07T23:48:46.308Z,1.80
2023-04-07T23:53:40.243Z,2.03
2023-04-07T23:56:07.354Z,2.10
2023-04-07T23:58:34.184Z,2.40
